Time;durP1;ratioP1;P1;durP2;ratioP2;P2;SDS_P1;SDS_P2;PMS_P1;PMS_P2;Temp;Humidity;BMP_temperature;BMP_pressure;BME280_temperature;BME280_humidity;BME280_pressure;Samples;Min_cycle;Max_cycle;Signal;HPM_P1;HPM_P2
2023/05/01 00:00:05;;;;;;;;;;;;;;;12.09;nan;102291.44;5066147;28;20013;-85
2023/05/01 00:02:30;;;;;;;;;;;;;;;12.00;nan;102278.50;5066650;28;20008;-85
2023/05/01 00:04:56;;;;;;;;;;;;;;;11.95;nan;102273.78;5062023;28;19925;-85
2023/05/01 00:07:21;;;;;;;;;;;;;;;11.92;nan;102276.09;5066416;28;20404;-85
2023/05/01 00:09:46;;;;;;;;;;;;;;;11.88;nan;102274.91;5065363;28;19948;-85
2023/05/01 00:12:12;;;;;;;;;;;;;;;11.85;nan;102269.94;5065680;28;19923;-86
2023/05/01 00:14:37;;;;;;;;;;;;;;;11.80;nan;102265.22;5066842;28;20456;-85
2023/05/01 00:17:03;;;;;;;;;;;;;;;11.76;nan;102261.31;5066350;28;19916;-84
2023/05/01 00:19:28;;;;;;;;;;;;;;;11.72;nan;102266.31;5065081;28;19959;-85
2023/05/01 00:21:53;;;;;;;;;;;;;;;11.68;nan;102265.09;5064516;28;19951;-86
2023/05/01 00:24:19;;;;;;;;;;;;;;;11.65;nan;102260.16;5064910;28;19943;-85
2023/05/01 00:26:45;;;;;;;;;;;;;;;11.61;nan;102269.69;5067099;28;19931;-85
2023/05/01 00:29:10;;;;;;;;;;;;;;;11.57;nan;102268.47;5064240;28;19981;-85
2023/05/01 00:31:35;;;;;;;;;;;;;;;11.53;nan;102267.28;5061901;28;19916;-85
2023/05/01 00:34:01;;;;;;;;;;;;;;;11.48;nan;102259.03;5062332;28;20283;-85
2023/05/01 00:36:26;;;;;;;;;;;;;;;11.45;nan;102249.56;5062187;28;19920;-85
2023/05/01 00:38:52;;;;;;;;;;;;;;;11.42;nan;102251.84;5064860;28;19916;-85
2023/05/01 00:41:17;;;;;;;;;;;;;;;11.38;nan;102240.75;5063780;28;19924;-85
2023/05/01 00:43:43;;;;;;;;;;;;;;;11.36;nan;102237.47;5060751;28;19921;-85
2023/05/01 00:46:09;;;;;;;;;;;;;;;11.35;nan;102243.03;5062252;28;19925;-85
2023/05/01 00:48:35;;;;;;;;;;;;;;;11.29;nan;102243.88;5059396;28;19932;-85
2023/05/01 00:51:03;;;;;;;;;;;;;;;11.25;nan;102226.59;5059914;28;19923;-84
2023/05/01 00:53:32;;;;;;;;;;;;;;;11.20;nan;102219.19;5059798;28;20046;-85
2023/05/01 00:55:57;;;;;;;;;;;;;;;11.15;nan;102225.22;5063891;28;19924;-85
2023/05/01 00:58:22;;;;;;;;;;;;;;;11.09;nan;102220.69;5060398;28;19951;-85
2023/05/01 01:00:48;;;;;;;;;;;;;;;11.06;nan;102222.97;5063805;28;20377;-85
2023/05/01 01:03:14;;;;;;;;;;;;;;;11.01;nan;102209.41;5063945;28;19927;-85
2023/05/01 01:05:45;;;;;;;;;;;;;;;10.99;nan;102208.81;5066683;28;20019;-85
2023/05/01 01:08:10;;;;;;;;;;;;;;;10.98;nan;102216.03;5065926;28;20224;-85
2023/05/01 01:10:42;;;;;;;;;;;;;;;10.95;nan;102219.13;5060914;28;20289;-86
2023/05/01 01:13:26;;;;;;;;;;;;;;;10.90;nan;102217.09;5069566;28;20362;-85
2023/05/01 01:16:03;;;;;;;;;;;;;;;10.85;nan;102219.59;5067283;28;19928;-85
2023/05/01 01:18:35;;;;;;;;;;;;;;;10.81;nan;102218.38;5064178;28;19920;-85
2023/05/01 01:21:12;;;;;;;;;;;;;;;10.79;nan;102230.34;5065372;28;19927;-85
2023/05/01 01:23:50;;;;;;;;;;;;;;;10.74;nan;102220.25;5065406;28;20444;-85
2023/05/01 01:26:34;;;;;;;;;;;;;;;10.71;nan;102214.50;5065038;28;20370;-85
2023/05/01 01:29:18;;;;;;;;;;;;;;;10.66;nan;102217.00;5065751;28;20382;-85
2023/05/01 01:31:56;;;;;;;;;;;;;;;10.59;nan;102212.50;5065355;28;19928;-85
2023/05/01 01:34:47;;;;;;;;;;;;;;;10.56;nan;102217.44;5067360;28;19920;-85
2023/05/01 01:37:18;;;;;;;;;;;;;;;10.51;nan;102212.72;5065673;28;19916;-85
2023/05/01 01:39:51;;;;;;;;;;;;;;;10.48;nan;102210.47;5064274;28;19999;-85
2023/05/01 01:42:30;;;;;;;;;;;;;;;10.44;nan;102208.44;5067216;28;19924;-85
2023/05/01 01:44:58;;;;;;;;;;;;;;;10.41;nan;102211.50;5067102;28;20405;-85
2023/05/01 01:47:27;;;;;;;;;;;;;;;10.39;nan;102211.72;5065479;28;19973;-85
2023/05/01 01:49:54;;;;;;;;;;;;;;;10.36;nan;102209.47;5069803;28;19916;-85
2023/05/01 01:52:21;;;;;;;;;;;;;;;10.33;nan;102201.84;5065559;28;19931;-85
2023/05/01 01:54:51;;;;;;;;;;;;;;;10.32;nan;102204.75;5069032;28;19920;-84
2023/05/01 01:57:18;;;;;;;;;;;;;;;10.31;nan;102209.28;5068835;28;19916;-85
2023/05/01 01:59:45;;;;;;;;;;;;;;;10.28;nan;102204.34;5067848;28;19916;-85
2023/05/01 02:02:11;;;;;;;;;;;;;;;10.25;nan;102204.78;5068427;28;19917;-85
2023/05/01 02:04:38;;;;;;;;;;;;;;;10.20;nan;102193.81;5069591;28;19928;-85
2023/05/01 02:07:03;;;;;;;;;;;;;;;10.15;nan;102196.31;5065880;28;20028;-85
2023/05/01 02:09:30;;;;;;;;;;;;;;;10.10;nan;102196.13;5069316;28;20010;-85
2023/05/01 02:11:56;;;;;;;;;;;;;;;10.05;nan;102191.38;5068563;28;19920;-85
2023/05/01 02:14:24;;;;;;;;;;;;;;;10.00;nan;102189.34;5068170;28;20304;-85
2023/05/01 02:16:49;;;;;;;;;;;;;;;9.97;nan;102192.44;5063625;28;20164;-85
2023/05/01 02:19:15;;;;;;;;;;;;;;;9.94;nan;102189.34;5068133;28;20014;-85
2023/05/01 02:21:41;;;;;;;;;;;;;;;9.91;nan;102187.94;5066211;28;19916;-85
2023/05/01 02:24:07;;;;;;;;;;;;;;;9.88;nan;102183.00;5069445;28;19917;-84
2023/05/01 02:26:37;;;;;;;;;;;;;;;9.86;nan;102174.31;5068073;28;20019;-83
2023/05/01 02:29:03;;;;;;;;;;;;;;;9.87;nan;102169.78;5074930;28;19932;-83
2023/05/01 02:31:29;;;;;;;;;;;;;;;9.86;nan;102174.31;5063024;28;20003;-85
2023/05/01 02:33:54;;;;;;;;;;;;;;;9.82;nan;102175.78;5071092;28;20011;-83
2023/05/01 02:36:19;;;;;;;;;;;;;;;9.80;nan;102179.69;5068323;28;19975;-83
2023/05/01 02:38:46;;;;;;;;;;;;;;;9.74;nan;102173.31;5069291;28;19925;-83
2023/05/01 02:41:14;;;;;;;;;;;;;;;9.73;nan;102170.84;5066624;28;20279;-83
2023/05/01 02:43:40;;;;;;;;;;;;;;;9.69;nan;102173.97;5067818;28;19925;-83
2023/05/01 02:46:06;;;;;;;;;;;;;;;9.70;nan;102166.75;5070873;28;19927;-83
2023/05/01 02:48:32;;;;;;;;;;;;;;;9.71;nan;102160.38;5068472;28;19920;-83
2023/05/01 02:51:00;;;;;;;;;;;;;;;9.70;nan;102164.06;5069468;28;19917;-83
2023/05/01 02:53:25;;;;;;;;;;;;;;;9.65;nan;102163.84;5064069;28;19974;-84
2023/05/01 02:55:51;;;;;;;;;;;;;;;9.60;nan;102164.47;5064855;28;20050;-83
2023/05/01 02:58:17;;;;;;;;;;;;;;;9.60;nan;102161.81;5066428;28;19932;-84
2023/05/01 03:00:43;;;;;;;;;;;;;;;9.59;nan;102160.16;5066844;28;19916;-83
2023/05/01 03:03:08;;;;;;;;;;;;;;;9.57;nan;102153.38;5062778;28;19920;-83
2023/05/01 03:05:34;;;;;;;;;;;;;;;9.54;nan;102159.13;5063263;28;19931;-83
2023/05/01 03:07:59;;;;;;;;;;;;;;;9.53;nan;102154.81;5065882;28;19924;-83
2023/05/01 03:10:24;;;;;;;;;;;;;;;9.52;nan;102155.84;5072684;28;19924;-84
2023/05/01 03:12:50;;;;;;;;;;;;;;;9.46;nan;102148.63;5072495;28;19916;-84
2023/05/01 03:15:15;;;;;;;;;;;;;;;9.39;nan;102146.78;5069345;28;19942;-85
2023/05/01 03:17:41;;;;;;;;;;;;;;;9.35;nan;102142.88;5066345;28;19956;-84
2023/05/01 03:20:08;;;;;;;;;;;;;;;9.33;nan;102144.91;5065556;28;19926;-85
2023/05/01 03:22:33;;;;;;;;;;;;;;;9.31;nan;102141.63;5069362;28;19926;-84
2023/05/01 03:24:59;;;;;;;;;;;;;;;9.30;nan;102148.00;5067803;28;20010;-83
2023/05/01 03:27:24;;;;;;;;;;;;;;;9.29;nan;102145.53;5064997;28;19924;-84
2023/05/01 03:29:50;;;;;;;;;;;;;;;9.28;nan;102144.72;5066687;28;19916;-84
2023/05/01 03:32:16;;;;;;;;;;;;;;;9.27;nan;102144.94;5062934;28;19978;-84
2023/05/01 03:34:42;;;;;;;;;;;;;;;9.25;nan;102145.13;5066990;28;20014;-85
2023/05/01 03:37:08;;;;;;;;;;;;;;;9.22;nan;102126.00;5067024;28;20003;-84
2023/05/01 03:39:33;;;;;;;;;;;;;;;9.20;nan;102142.25;5069414;28;20384;-84
2023/05/01 03:41:58;;;;;;;;;;;;;;;9.19;nan;102137.13;5067612;28;19975;-84
2023/05/01 03:44:24;;;;;;;;;;;;;;;9.19;nan;102145.97;5062371;28;19927;-84
2023/05/01 03:46:49;;;;;;;;;;;;;;;9.20;nan;102136.91;5066681;28;19920;-83
2023/05/01 03:49:14;;;;;;;;;;;;;;;9.18;nan;102138.97;5065435;28;19927;-84
2023/05/01 03:51:40;;;;;;;;;;;;;;;9.16;nan;102141.03;5063898;28;19916;-85
2023/05/01 03:54:05;;;;;;;;;;;;;;;9.16;nan;102140.22;5063871;28;19924;-84
2023/05/01 03:56:34;;;;;;;;;;;;;;;9.13;nan;102136.06;5065878;28;19920;-83
2023/05/01 03:58:59;;;;;;;;;;;;;;;9.13;nan;102135.25;5068857;28;19925;-86
2023/05/01 04:01:25;;;;;;;;;;;;;;;9.11;nan;102134.63;5065202;28;20389;-85
2023/05/01 04:03:50;;;;;;;;;;;;;;;9.11;nan;102126.59;5063455;28;19923;-84
2023/05/01 04:06:19;;;;;;;;;;;;;;;9.13;nan;102132.56;5064405;28;19978;-84
2023/05/01 04:08:44;;;;;;;;;;;;;;;9.14;nan;102128.88;5067233;28;19990;-84
2023/05/01 04:11:10;;;;;;;;;;;;;;;9.15;nan;102131.34;5064375;28;19952;-84
2023/05/01 04:13:35;;;;;;;;;;;;;;;9.15;nan;102128.66;5062685;28;19916;-84
2023/05/01 04:16:01;;;;;;;;;;;;;;;9.19;nan;102129.09;5067140;28;19916;-86
2023/05/01 04:18:26;;;;;;;;;;;;;;;9.22;nan;102129.50;5062135;28;19925;-86
2023/05/01 04:20:52;;;;;;;;;;;;;;;9.30;nan;102118.59;5066568;28;20271;-84
2023/05/01 04:23:17;;;;;;;;;;;;;;;9.36;nan;102123.13;5067514;28;19916;-84
2023/05/01 04:25:43;;;;;;;;;;;;;;;9.42;nan;102123.31;5061808;28;19932;-84
2023/05/01 04:28:11;;;;;;;;;;;;;;;9.51;nan;102120.22;5061952;28;20019;-83
2023/05/01 04:30:37;;;;;;;;;;;;;;;9.62;nan;102121.44;5062903;28;19943;-84
2023/05/01 04:33:05;;;;;;;;;;;;;;;9.74;nan;102127.00;5064163;28;19916;-83
2023/05/01 04:35:30;;;;;;;;;;;;;;;9.82;nan;102124.91;5065546;28;20322;-83
2023/05/01 04:37:55;;;;;;;;;;;;;;;9.90;nan;102116.66;5086022;28;19927;-84
2023/05/01 04:40:21;;;;;;;;;;;;;;;10.01;nan;102123.22;5068071;28;19970;-83
2023/05/01 04:42:46;;;;;;;;;;;;;;;10.11;nan;102126.28;5072277;28;20340;-83
2023/05/01 04:45:11;;;;;;;;;;;;;;;10.20;nan;102121.50;5070563;28;19920;-83
2023/05/01 04:47:37;;;;;;;;;;;;;;;10.30;nan;102116.56;5070575;28;19924;-84
2023/05/01 04:50:03;;;;;;;;;;;;;;;10.41;nan;102113.22;5072344;28;19928;-84
2023/05/01 04:52:28;;;;;;;;;;;;;;;10.53;nan;102119.53;5074592;28;19920;-84
2023/05/01 04:54:53;;;;;;;;;;;;;;;10.65;nan;102119.69;5073619;28;20290;-85
2023/05/01 04:57:19;;;;;;;;;;;;;;;10.75;nan;102117.34;5070944;28;20321;-84
2023/05/01 04:59:44;;;;;;;;;;;;;;;10.85;nan;102106.16;5069478;28;19924;-84
2023/05/01 05:02:09;;;;;;;;;;;;;;;11.00;nan;102112.03;5073971;28;19947;-86
2023/05/01 05:04:35;;;;;;;;;;;;;;;11.14;nan;102107.41;5072309;28;19916;-83
2023/05/01 05:07:00;;;;;;;;;;;;;;;11.28;nan;102108.91;5067739;28;19922;-85
2023/05/01 05:09:26;;;;;;;;;;;;;;;11.41;nan;102097.25;5071977;28;19924;-84
2023/05/01 05:11:51;;;;;;;;;;;;;;;11.52;nan;102104.59;5072228;28;19923;-84
2023/05/01 05:14:19;;;;;;;;;;;;;;;11.64;nan;102110.03;5069540;28;19921;-84
2023/05/01 05:16:44;;;;;;;;;;;;;;;11.76;nan;102105.56;5073504;28;19923;-84
2023/05/01 05:19:10;;;;;;;;;;;;;;;11.89;nan;102104.66;5074373;28;20403;-86
2023/05/01 05:21:36;;;;;;;;;;;;;;;12.04;nan;102105.09;5074057;28;19916;-83
2023/05/01 05:24:01;;;;;;;;;;;;;;;12.19;nan;102105.50;5072505;28;20436;-84
2023/05/01 05:26:27;;;;;;;;;;;;;;;12.30;nan;102106.63;5066858;28;19924;-84
2023/05/01 05:28:52;;;;;;;;;;;;;;;12.37;nan;102102.81;5070241;28;20023;-84
2023/05/01 05:31:18;;;;;;;;;;;;;;;12.48;nan;102103.91;5071793;28;19924;-84
2023/05/01 05:33:43;;;;;;;;;;;;;;;12.62;nan;102102.69;5062255;28;20009;-87
2023/05/01 05:36:09;;;;;;;;;;;;;;;12.73;nan;102090.31;5059721;28;20246;-84
2023/05/01 05:38:34;;;;;;;;;;;;;;;12.82;nan;102083.56;5063974;28;19920;-84
2023/05/01 05:41:00;;;;;;;;;;;;;;;12.87;nan;102089.06;5061751;28;19945;-84
2023/05/01 05:43:26;;;;;;;;;;;;;;;12.98;nan;102079.41;5064873;28;20087;-84
2023/05/01 05:45:55;;;;;;;;;;;;;;;13.07;nan;102083.38;5064000;28;20018;-84
2023/05/01 05:48:20;;;;;;;;;;;;;;;13.15;nan;102082.22;5067205;28;19940;-84
2023/05/01 05:50:45;;;;;;;;;;;;;;;13.21;nan;102067.84;5070083;28;19920;-86
2023/05/01 05:53:12;;;;;;;;;;;;;;;13.29;nan;102065.66;5073263;28;19990;-84
2023/05/01 05:55:38;;;;;;;;;;;;;;;13.35;nan;102073.84;5070083;28;19924;-84
2023/05/01 05:58:03;;;;;;;;;;;;;;;13.41;nan;102070.19;5066863;28;19921;-84
2023/05/01 06:00:28;;;;;;;;;;;;;;;13.47;nan;102069.28;5070668;28;19924;-86
2023/05/01 06:02:54;;;;;;;;;;;;;;;13.53;nan;102061.06;5067770;28;20012;-83
2023/05/01 06:05:19;;;;;;;;;;;;;;;13.68;nan;102065.16;5070357;28;19920;-84
2023/05/01 06:07:50;;;;;;;;;;;;;;;13.74;nan;102064.19;5071786;28;20109;-84
2023/05/01 06:10:15;;;;;;;;;;;;;;;13.87;nan;102059.38;5069613;28;19920;-85
2023/05/01 06:12:41;;;;;;;;;;;;;;;14.01;nan;102057.25;5067876;28;20406;-84
2023/05/01 06:15:07;;;;;;;;;;;;;;;14.11;nan;102057.44;5070763;28;19923;-85
2023/05/01 06:17:33;;;;;;;;;;;;;;;14.24;nan;102055.53;5068174;28;19923;-86
2023/05/01 06:19:58;;;;;;;;;;;;;;;14.36;nan;102056.25;5069341;28;20371;-85
2023/05/01 06:22:23;;;;;;;;;;;;;;;14.52;nan;102056.34;5070115;28;19930;-85
2023/05/01 06:24:49;;;;;;;;;;;;;;;14.69;nan;102053.66;5071684;28;19936;-85
2023/05/01 06:27:14;;;;;;;;;;;;;;;14.79;nan;102051.16;5079028;28;19932;-84
2023/05/01 06:29:39;;;;;;;;;;;;;;;14.88;nan;102050.75;5072033;28;19939;-84
2023/05/01 06:32:05;;;;;;;;;;;;;;;15.01;nan;102053.94;5066549;28;19980;-83
2023/05/01 06:34:30;;;;;;;;;;;;;;;15.14;nan;102049.28;5067546;28;20374;-84
2023/05/01 06:36:55;;;;;;;;;;;;;;;15.28;nan;102043.28;5068500;28;19924;-85
2023/05/01 06:39:21;;;;;;;;;;;;;;;15.33;nan;102042.53;5073111;28;19930;-84
2023/05/01 06:41:47;;;;;;;;;;;;;;;15.38;nan;102048.81;5066432;28;19916;-87
2023/05/01 06:44:12;;;;;;;;;;;;;;;15.49;nan;102040.88;5074169;28;20423;-85
2023/05/01 06:46:38;;;;;;;;;;;;;;;15.63;nan;102042.19;5073236;28;19939;-84
2023/05/01 06:49:03;;;;;;;;;;;;;;;15.75;nan;102037.47;5067277;28;20039;-85
2023/05/01 06:51:30;;;;;;;;;;;;;;;15.82;nan;102037.28;5073563;28;19926;-86
2023/05/01 06:53:55;;;;;;;;;;;;;;;15.90;nan;102034.94;5068641;28;19948;-85
2023/05/01 06:56:21;;;;;;;;;;;;;;;16.04;nan;102031.88;5073091;28;20530;-85
2023/05/01 06:58:46;;;;;;;;;;;;;;;16.27;nan;102036.97;5066710;28;19985;-86
2023/05/01 07:01:11;;;;;;;;;;;;;;;16.40;nan;102039.28;5066293;28;19923;-85
2023/05/01 07:03:37;;;;;;;;;;;;;;;16.57;nan;102023.75;5062731;28;19924;-87
2023/05/01 07:06:02;;;;;;;;;;;;;;;16.72;nan;102033.13;5067558;28;20298;-84
2023/05/01 07:08:28;;;;;;;;;;;;;;;16.78;nan;102018.53;5068550;28;20313;-85
2023/05/01 07:10:53;;;;;;;;;;;;;;;16.89;nan;102022.97;5069502;28;19943;-84
2023/05/01 07:13:18;;;;;;;;;;;;;;;17.01;nan;102020.88;5069083;28;19920;-86
2023/05/01 07:15:44;;;;;;;;;;;;;;;17.17;nan;102009.06;5064697;28;19921;-85
2023/05/01 07:18:11;;;;;;;;;;;;;;;17.27;nan;102011.03;5068981;28;19927;-86
2023/05/01 07:20:36;;;;;;;;;;;;;;;17.39;nan;102013.53;5066115;28;20192;-86
2023/05/01 07:23:02;;;;;;;;;;;;;;;17.52;nan;102013.88;5069015;28;19943;-85
2023/05/01 07:25:30;;;;;;;;;;;;;;;17.66;nan;102006.09;5068925;28;20127;-85
2023/05/01 07:27:55;;;;;;;;;;;;;;;17.79;nan;102010.25;5069194;28;20360;-85
2023/05/01 07:30:20;;;;;;;;;;;;;;;17.96;nan;102007.31;5066057;28;19923;-85
2023/05/01 07:32:46;;;;;;;;;;;;;;;18.09;nan;102004.06;5064158;28;19916;-88
2023/05/01 07:35:12;;;;;;;;;;;;;;;18.19;nan;102008.72;5055536;28;20031;-86
2023/05/01 07:37:37;;;;;;;;;;;;;;;18.32;nan;102006.31;5063953;28;20010;-85
2023/05/01 07:40:03;;;;;;;;;;;;;;;18.48;nan;102003.59;5060525;28;19917;-85
2023/05/01 07:42:28;;;;;;;;;;;;;;;18.62;nan;102005.50;5063759;28;19993;-87
2023/05/01 07:44:54;;;;;;;;;;;;;;;18.72;nan;102004.72;5063897;28;20317;-87
2023/05/01 07:47:19;;;;;;;;;;;;;;;18.92;nan;101996.56;5062708;28;19978;-86
2023/05/01 07:49:44;;;;;;;;;;;;;;;19.12;nan;102000.34;5063270;28;20922;-85
2023/05/01 07:52:10;;;;;;;;;;;;;;;19.22;nan;101990.28;5067208;28;20569;-85
2023/05/01 07:54:35;;;;;;;;;;;;;;;19.22;nan;101987.56;5062385;28;20566;-85
2023/05/01 07:57:01;;;;;;;;;;;;;;;19.25;nan;101997.06;5059966;28;19939;-85
2023/05/01 07:59:27;;;;;;;;;;;;;;;19.37;nan;101992.09;5064242;28;19927;-85
2023/05/01 08:01:53;;;;;;;;;;;;;;;19.41;nan;101981.50;5063961;28;19925;-87
2023/05/01 08:04:21;;;;;;;;;;;;;;;19.48;nan;101984.75;5063975;28;20155;-85
2023/05/01 08:06:46;;;;;;;;;;;;;;;19.69;nan;101977.34;5059077;28;20360;-85
2023/05/01 08:09:12;;;;;;;;;;;;;;;19.83;nan;101981.06;5081055;28;19928;-84
2023/05/01 08:11:37;;;;;;;;;;;;;;;20.00;nan;101973.34;5068870;28;19916;-85
2023/05/01 08:14:02;;;;;;;;;;;;;;;20.16;nan;101980.34;5069626;28;19959;-85
2023/05/01 08:16:28;;;;;;;;;;;;;;;20.32;nan;101978.31;5066350;28;19987;-86
2023/05/01 08:18:53;;;;;;;;;;;;;;;20.51;nan;101970.31;5070272;28;19916;-84
2023/05/01 08:21:19;;;;;;;;;;;;;;;20.59;nan;101966.97;5071327;28;19916;-85
2023/05/01 08:23:44;;;;;;;;;;;;;;;20.75;nan;101965.72;5080233;28;19912;-85
2023/05/01 08:26:12;;;;;;;;;;;;;;;20.88;nan;101975.16;5077444;28;19920;-85
2023/05/01 08:28:37;;;;;;;;;;;;;;;20.98;nan;101957.88;5079748;28;19920;-83
2023/05/01 08:31:03;;;;;;;;;;;;;;;21.09;nan;101962.13;5077324;28;19962;-84
2023/05/01 08:33:28;;;;;;;;;;;;;;;21.16;nan;101954.41;5071957;28;19939;-83
2023/05/01 08:35:53;;;;;;;;;;;;;;;21.27;nan;101952.41;5079814;28;19960;-84
2023/05/01 08:38:19;;;;;;;;;;;;;;;21.33;nan;101953.97;5077108;28;19919;-84
2023/05/01 08:40:52;;;;;;;;;;;;;;;21.43;nan;101956.56;5081482;28;19916;-83
2023/05/01 08:43:17;;;;;;;;;;;;;;;21.53;nan;101952.88;5092534;28;19928;-84
2023/05/01 08:45:43;;;;;;;;;;;;;;;21.50;nan;101951.56;5088516;28;19916;-84
2023/05/01 08:48:09;;;;;;;;;;;;;;;21.47;nan;101945.88;5088377;28;19920;-83
2023/05/01 08:50:37;;;;;;;;;;;;;;;21.57;nan;101943.03;5086780;28;20077;-84
2023/05/01 08:53:03;;;;;;;;;;;;;;;21.71;nan;101939.28;5089027;28;19968;-82
2023/05/01 08:55:30;;;;;;;;;;;;;;;21.73;nan;101925.38;5091799;28;19924;-83
2023/05/01 08:57:56;;;;;;;;;;;;;;;21.82;nan;101930.97;5087565;28;19969;-84
2023/05/01 09:00:23;;;;;;;;;;;;;;;21.83;nan;101940.75;5083651;28;19923;-82
2023/05/01 09:02:49;;;;;;;;;;;;;;;21.89;nan;101934.13;5082961;28;19946;-84
2023/05/01 09:05:16;;;;;;;;;;;;;;;21.88;nan;101927.84;5087936;28;20001;-85
2023/05/01 09:07:42;;;;;;;;;;;;;;;22.00;nan;101939.13;5083052;28;19956;-84
2023/05/01 09:10:07;;;;;;;;;;;;;;;21.91;nan;101930.00;5079627;28;19975;-82
2023/05/01 09:12:35;;;;;;;;;;;;;;;21.89;nan;101917.75;5079468;28;19923;-82
2023/05/01 09:15:02;;;;;;;;;;;;;;;21.99;nan;101925.78;5076888;28;20335;-82
2023/05/01 09:17:30;;;;;;;;;;;;;;;21.99;nan;101915.69;5077121;28;20154;-83
2023/05/01 09:19:56;;;;;;;;;;;;;;;22.11;nan;101911.72;5074156;28;19951;-82
2023/05/01 09:22:21;;;;;;;;;;;;;;;22.20;nan;101909.94;5073712;28;19916;-82
2023/05/01 09:24:47;;;;;;;;;;;;;;;22.26;nan;101916.91;5068114;28;19916;-82
2023/05/01 09:27:13;;;;;;;;;;;;;;;22.31;nan;101911.41;5070307;28;20002;-83
2023/05/01 09:29:42;;;;;;;;;;;;;;;22.35;nan;101909.69;5070023;28;19916;-82
2023/05/01 09:32:15;;;;;;;;;;;;;;;22.36;nan;101900.38;5071521;28;19916;-82
2023/05/01 09:34:42;;;;;;;;;;;;;;;22.31;nan;101892.28;5072153;28;19992;-84
2023/05/01 09:37:09;;;;;;;;;;;;;;;22.31;nan;101881.38;5069923;28;19924;-82
2023/05/01 09:39:35;;;;;;;;;;;;;;;22.27;nan;101883.06;5071636;28;19927;-84
2023/05/01 09:42:02;;;;;;;;;;;;;;;22.30;nan;101880.56;5076575;28;20513;-83
2023/05/01 09:44:27;;;;;;;;;;;;;;;22.33;nan;101881.06;5073369;28;19916;-83
2023/05/01 09:46:53;;;;;;;;;;;;;;;22.46;nan;101869.38;5069447;28;20003;-82
2023/05/01 09:52:33;;;;;;;;;;;;;;;22.81;nan;101878.81;5042606;28;20496;-83
2023/05/01 10:01:37;;;;;;;;;;;;;;;23.24;nan;101864.84;5072572;28;19926;-83
2023/05/01 10:08:09;;;;;;;;;;;;;;;23.36;nan;101848.72;5029853;28;19956;-82
2023/05/01 10:10:55;;;;;;;;;;;;;;;23.41;nan;101837.66;5067576;28;19916;-82
2023/05/01 10:13:23;;;;;;;;;;;;;;;23.55;nan;101846.63;5063464;28;19950;-82
2023/05/01 10:15:51;;;;;;;;;;;;;;;23.63;nan;101834.97;5076040;28;19917;-81
2023/05/01 10:18:20;;;;;;;;;;;;;;;23.63;nan;101834.97;5072990;28;20065;-81
2023/05/01 10:20:50;;;;;;;;;;;;;;;23.68;nan;101826.63;5073947;28;19925;-81
2023/05/01 10:23:18;;;;;;;;;;;;;;;23.94;nan;101828.75;5070905;28;20419;-81
2023/05/01 10:25:50;;;;;;;;;;;;;;;24.16;nan;101825.19;5069339;28;20075;-82
2023/05/01 10:28:22;;;;;;;;;;;;;;;24.20;nan;101816.03;5072354;28;19920;-81
2023/05/01 10:30:51;;;;;;;;;;;;;;;24.29;nan;101814.19;5072536;28;19916;-82
2023/05/01 10:33:19;;;;;;;;;;;;;;;24.49;nan;101806.53;5073983;28;19921;-82
2023/05/01 10:36:12;;;;;;;;;;;;;;;24.52;nan;101800.41;5071170;28;20249;-83
2023/05/01 10:38:47;;;;;;;;;;;;;;;24.48;nan;101799.44;5073471;28;20042;-82
2023/05/01 10:41:42;;;;;;;;;;;;;;;24.39;nan;101786.50;5072780;28;19920;-82
2023/05/01 10:44:22;;;;;;;;;;;;;;;24.41;nan;101783.44;5077875;28;19927;-82
2023/05/01 10:47:10;;;;;;;;;;;;;;;24.60;nan;101769.50;5069597;28;19976;-82
2023/05/01 10:50:10;;;;;;;;;;;;;;;;;;;;;
2023/05/01 10:58:40;;;;;;;;;;;;;;;24.91;nan;101758.44;5060430;28;19962;-82
2023/05/01 11:01:30;;;;;;;;;;;;;;;25.06;nan;101758.00;5072700;28;19924;-82
2023/05/01 11:04:07;;;;;;;;;;;;;;;;;;;;;
2023/05/01 11:09:42;;;;;;;;;;;;;;;25.23;nan;101746.25;5067962;28;19927;-81
2023/05/01 11:12:27;;;;;;;;;;;;;;;25.29;nan;101750.41;5071397;28;19986;-82
2023/05/01 11:14:53;;;;;;;;;;;;;;;25.50;nan;101743.16;5071255;28;19916;-82
2023/05/01 11:17:37;;;;;;;;;;;;;;;25.70;nan;101729.91;5071845;28;19973;-82
2023/05/01 11:20:05;;;;;;;;;;;;;;;25.72;nan;101724.91;5071281;28;20393;-82
2023/05/01 11:22:31;;;;;;;;;;;;;;;25.69;nan;101725.56;5071504;28;19964;-81
2023/05/01 11:25:04;;;;;;;;;;;;;;;25.79;nan;101723.25;5071821;28;20385;-82
2023/05/01 11:27:32;;;;;;;;;;;;;;;25.92;nan;101709.66;5070644;28;20368;-83
2023/05/01 11:29:58;;;;;;;;;;;;;;;26.13;nan;101711.34;5078535;28;19916;-82
2023/05/01 11:32:25;;;;;;;;;;;;;;;26.24;nan;101700.81;5070438;28;19921;-83
2023/05/01 11:34:53;;;;;;;;;;;;;;;26.28;nan;101699.00;5069634;28;19917;-83
2023/05/01 11:37:38;;;;;;;;;;;;;;;26.07;nan;101704.44;5073647;28;19916;-83
2023/05/01 11:40:18;;;;;;;;;;;;;;;25.88;nan;101699.34;5070794;28;19917;-83
2023/05/01 11:42:44;;;;;;;;;;;;;;;25.96;nan;101694.13;5063568;28;19962;-82
2023/05/01 11:45:15;;;;;;;;;;;;;;;26.09;nan;101693.94;5067969;28;19947;-83
2023/05/01 11:47:43;;;;;;;;;;;;;;;26.42;nan;101685.06;5068901;28;19924;-82
2023/05/01 11:50:22;;;;;;;;;;;;;;;;;;;;;
2023/05/01 11:52:51;;;;;;;;;;;;;;;26.96;nan;101685.16;5066304;28;19916;-84
2023/05/01 11:55:20;;;;;;;;;;;;;;;27.13;nan;101674.03;5071183;28;19924;-83
2023/05/01 11:57:48;;;;;;;;;;;;;;;27.14;nan;101672.88;5070810;28;19916;-82
2023/05/01 12:00:16;;;;;;;;;;;;;;;27.32;nan;101668.81;5070813;28;19985;-82
2023/05/01 12:03:01;;;;;;;;;;;;;;;27.22;nan;101666.50;5067270;28;19962;-82
2023/05/01 12:05:30;;;;;;;;;;;;;;;27.22;nan;101660.97;5066242;28;19920;-83
2023/05/01 12:08:12;;;;;;;;;;;;;;;27.37;nan;101654.03;5067223;28;20654;-84
2023/05/01 12:10:39;;;;;;;;;;;;;;;27.46;nan;101649.22;5073348;28;19927;-82
2023/05/01 12:13:07;;;;;;;;;;;;;;;27.49;nan;101645.03;5068034;28;19926;-82
2023/05/01 12:15:40;;;;;;;;;;;;;;;27.58;nan;101637.44;5068640;28;19924;-82
2023/05/01 12:18:05;;;;;;;;;;;;;;;27.69;nan;101633.16;5070766;28;19931;-81
2023/05/01 12:20:38;;;;;;;;;;;;;;;27.69;nan;101630.41;5068177;28;19916;-82
2023/05/01 12:23:04;;;;;;;;;;;;;;;27.57;nan;101630.34;5067347;28;19951;-82
2023/05/01 12:25:30;;;;;;;;;;;;;;;27.48;nan;101624.16;5071857;28;19927;-83
2023/05/01 12:28:06;;;;;;;;;;;;;;;27.49;nan;101623.00;5065099;28;19924;-83
2023/05/01 12:30:32;;;;;;;;;;;;;;;27.44;nan;101610.25;5071749;28;20428;-83
2023/05/01 12:32:57;;;;;;;;;;;;;;;27.49;nan;101612.78;5071106;28;20011;-82
2023/05/01 12:35:31;;;;;;;;;;;;;;;27.45;nan;101608.28;5070518;28;19924;-83
2023/05/01 12:37:57;;;;;;;;;;;;;;;27.42;nan;101608.97;5069656;28;19928;-83
2023/05/01 12:40:25;;;;;;;;;;;;;;;27.33;nan;101601.66;5072705;28;20390;-82
2023/05/01 12:43:17;;;;;;;;;;;;;;;27.34;nan;101600.50;5070358;28;20014;-82
2023/05/01 12:45:43;;;;;;;;;;;;;;;27.42;nan;101595.22;5066163;28;19975;-83
2023/05/01 12:48:11;;;;;;;;;;;;;;;27.46;nan;101585.13;5069962;28;20441;-81
2023/05/01 12:50:37;;;;;;;;;;;;;;;27.57;nan;101586.31;5069341;28;20381;-82
2023/05/01 12:53:10;;;;;;;;;;;;;;;27.75;nan;101571.19;5072730;28;19927;-84
2023/05/01 12:55:42;;;;;;;;;;;;;;;27.86;nan;101568.78;5068877;28;20358;-82
2023/05/01 12:58:17;;;;;;;;;;;;;;;27.95;nan;101564.75;5068947;28;19947;-83
2023/05/01 13:00:46;;;;;;;;;;;;;;;28.13;nan;101564.50;5069595;28;20293;-84
2023/05/01 13:03:15;;;;;;;;;;;;;;;28.19;nan;101563.94;5073012;28;19932;-82
2023/05/01 13:06:02;;;;;;;;;;;;;;;28.28;nan;101556.34;5075302;28;19995;-82
2023/05/01 13:08:32;;;;;;;;;;;;;;;28.22;nan;101552.19;5069105;28;19932;-82
2023/05/01 13:11:02;;;;;;;;;;;;;;;28.33;nan;101557.25;5076698;28;19978;-82
2023/05/01 13:13:33;;;;;;;;;;;;;;;28.37;nan;101550.69;5073724;28;19985;-82
2023/05/01 13:16:13;;;;;;;;;;;;;;;28.28;nan;101552.78;5070798;28;21696;-82
2023/05/01 13:18:56;;;;;;;;;;;;;;;;;;;;;
2023/05/01 13:21:22;;;;;;;;;;;;;;;28.15;nan;101554.72;5072121;28;20278;-82
2023/05/01 13:24:24;;;;;;;;;;;;;;;;;;;;;
2023/05/01 13:26:59;;;;;;;;;;;;;;;28.20;nan;101546.25;5071860;28;19916;-82
2023/05/01 13:29:30;;;;;;;;;;;;;;;28.14;nan;101544.06;5069755;28;19932;-82
2023/05/01 13:31:55;;;;;;;;;;;;;;;28.06;nan;101545.00;5073858;28;19916;-82